createdAt,value
2019-02-19T00:01:29.702Z,90.90
2019-02-19T00:08:20.476Z,91.00
2019-02-19T00:11:00.789Z,91.20
2019-02-19T00:14:09.420Z,91.30
2019-02-19T00:21:18.647Z,91.20
2019-02-19T00:23:50.398Z,91.10
2019-02-19T00:27:40.622Z,91.10
2019-02-19T00:31:37.611Z,91.20
2019-02-19T00:34:40.618Z,91.00
2019-02-19T00:37:38.789Z,91.20
2019-02-19T00:40:55.119Z,91.30
2019-02-19T00:44:25.694Z,92.00
2019-02-19T00:50:57.229Z,91.10
2019-02-19T00:57:50.998Z,91.30
2019-02-19T01:01:21.318Z,91.20
2019-02-19T01:07:29.094Z,91.40
2019-02-19T01:10:51.770Z,91.30
2019-02-19T01:17:24.348Z,91.20
2019-02-19T01:20:26.522Z,91.40
2019-02-19T01:26:07.151Z,91.70
2019-02-19T01:29:22.245Z,91.40
2019-02-19T01:32:17.582Z,91.20
2019-02-19T01:42:50.994Z,91.30
2019-02-19T01:45:34.901Z,91.30
2019-02-19T01:48:37.458Z,91.40
2019-02-19T01:51:31.958Z,91.40
2019-02-19T01:54:34.243Z,91.70
2019-02-19T01:58:01.206Z,91.70
2019-02-19T02:00:58.804Z,91.60
2019-02-19T02:04:03.631Z,91.90
2019-02-19T02:06:59.138Z,91.90
2019-02-19T02:09:37.256Z,92.20
2019-02-19T02:12:58.595Z,92.30
2019-02-19T02:15:20.430Z,92.00
2019-02-19T02:22:51.674Z,92.10
2019-02-19T02:28:56.499Z,92.00
2019-02-19T02:31:59.604Z,92.40
2019-02-19T02:35:01.913Z,92.50
2019-02-19T02:37:40.285Z,92.40
2019-02-19T02:41:18.407Z,92.40
2019-02-19T02:43:56.001Z,92.30
2019-02-19T02:47:26.098Z,92.00
2019-02-19T02:56:51.617Z,92.00
2019-02-19T02:59:51.634Z,92.00
2019-02-19T03:02:43.991Z,92.30
2019-02-19T03:05:52.229Z,92.40
2019-02-19T03:09:30.797Z,92.50
2019-02-19T03:15:29.222Z,92.50
2019-02-19T03:19:05.702Z,92.70
2019-02-19T03:25:28.147Z,92.70
2019-02-19T03:28:27.055Z,92.40
2019-02-19T03:31:07.927Z,92.10
2019-02-19T03:33:51.066Z,92.20
2019-02-19T03:36:49.399Z,92.30
2019-02-19T03:39:21.701Z,92.30
2019-02-19T03:42:20.125Z,92.40
2019-02-19T03:44:59.013Z,92.20
2019-02-19T03:48:00.046Z,92.30
2019-02-19T03:50:54.586Z,92.50
2019-02-19T03:53:30.356Z,92.00
2019-02-19T03:56:18.022Z,91.90
2019-02-19T03:58:56.521Z,92.00
2019-02-19T04:01:37.206Z,91.90
2019-02-19T04:04:17.457Z,91.80
2019-02-19T04:06:51.236Z,91.90
2019-02-19T04:09:35.902Z,92.10
2019-02-19T04:12:19.810Z,92.20
2019-02-19T04:15:29.385Z,92.30
2019-02-19T04:18:16.131Z,92.30
2019-02-19T04:20:52.989Z,92.30
2019-02-19T04:23:56.032Z,92.30
2019-02-19T04:29:43.256Z,92.20
2019-02-19T04:32:39.081Z,92.30
2019-02-19T04:35:35.416Z,92.40
2019-02-19T04:38:55.840Z,92.50
2019-02-19T04:45:35.273Z,92.50
2019-02-19T04:55:40.693Z,92.90
2019-02-19T04:58:24.010Z,93.00
2019-02-19T05:01:38.151Z,93.30
2019-02-19T05:04:25.247Z,93.20
2019-02-19T05:07:08.239Z,93.20
2019-02-19T05:10:32.215Z,93.10
2019-02-19T05:14:05.469Z,93.20
2019-02-19T05:17:03.409Z,93.40
2019-02-19T05:21:01.725Z,93.20
2019-02-19T05:43:50.027Z,93.60
2019-02-19T05:57:58.310Z,93.30
2019-02-19T06:50:25.373Z,94.00
2019-02-19T06:53:51.763Z,94.10
2019-02-19T06:56:51.979Z,94.00
2019-02-19T06:59:35.709Z,93.90
2019-02-19T07:02:46.469Z,94.50
2019-02-19T07:05:29.886Z,94.00
2019-02-19T07:08:07.268Z,93.50
2019-02-19T07:10:47.799Z,93.60
2019-02-19T07:13:56.087Z,93.80
2019-02-19T07:16:29.302Z,94.00
2019-02-19T07:22:15.195Z,93.90
2019-02-19T07:24:54.649Z,94.10
2019-02-19T07:27:42.466Z,94.00
2019-02-19T07:30:17.661Z,94.00
2019-02-19T07:32:53.565Z,94.20
2019-02-19T07:35:28.958Z,94.20
2019-02-19T07:38:16.292Z,94.10
2019-02-19T07:40:43.824Z,94.00
2019-02-19T07:43:11.408Z,93.70
2019-02-19T07:45:39.191Z,93.70
2019-02-19T07:48:06.746Z,93.90
2019-02-19T07:50:34.285Z,94.00
2019-02-19T07:53:01.961Z,94.20
2019-02-19T07:55:29.854Z,94.20
2019-02-19T07:57:57.388Z,94.30
2019-02-19T08:00:25.022Z,94.10
2019-02-19T08:02:52.678Z,93.70
2019-02-19T08:05:20.249Z,93.50
2019-02-19T08:07:47.819Z,93.70
2019-02-19T08:10:15.376Z,93.30
2019-02-19T08:12:43.103Z,93.20
2019-02-19T08:15:10.707Z,93.20
2019-02-19T08:17:38.656Z,93.00
2019-02-19T08:20:13.449Z,92.60
2019-02-19T08:22:35.747Z,92.60
2019-02-19T08:25:03.623Z,92.80
2019-02-19T08:27:31.110Z,92.50
2019-02-19T08:29:58.755Z,92.50
2019-02-19T08:32:26.433Z,92.30
2019-02-19T08:34:55.317Z,92.10
2019-02-19T08:37:23.125Z,92.10
2019-02-19T08:39:51.900Z,91.90
2019-02-19T08:42:19.701Z,91.50
2019-02-19T08:44:47.316Z,91.30
2019-02-19T08:47:14.816Z,91.00
2019-02-19T08:49:42.309Z,90.50
2019-02-19T08:52:10.174Z,90.50
2019-02-19T08:54:37.817Z,90.60
2019-02-19T08:57:05.545Z,90.70
2019-02-19T08:59:33.264Z,90.80
2019-02-19T09:02:03.024Z,90.60
2019-02-19T09:04:30.993Z,90.40
2019-02-19T09:06:58.833Z,90.30
2019-02-19T09:09:26.742Z,90.50
2019-02-19T09:11:54.496Z,89.20
2019-02-19T09:14:22.393Z,88.80
2019-02-19T09:16:50.034Z,89.00
2019-02-19T09:19:17.859Z,89.50
2019-02-19T09:21:45.497Z,89.20
2019-02-19T09:24:13.040Z,90.10
2019-02-19T09:26:40.792Z,90.10
2019-02-19T09:29:08.683Z,90.00
2019-02-19T09:31:36.156Z,87.70
2019-02-19T09:34:06.583Z,87.10
2019-02-19T09:36:34.069Z,86.90
2019-02-19T09:39:01.553Z,88.20
2019-02-19T09:41:29.028Z,87.30
2019-02-19T09:43:56.524Z,86.70
2019-02-19T09:46:23.975Z,86.10
2019-02-19T09:48:51.452Z,86.20
2019-02-19T09:51:19.183Z,86.50
2019-02-19T09:53:46.678Z,86.70
2019-02-19T09:56:14.200Z,85.90
2019-02-19T09:58:41.667Z,86.30
2019-02-19T10:01:09.298Z,86.80
2019-02-19T10:03:36.778Z,87.40
2019-02-19T10:06:04.565Z,87.20
2019-02-19T10:08:32.522Z,88.20
2019-02-19T10:11:00.104Z,88.10
2019-02-19T10:13:27.585Z,87.90
2019-02-19T10:15:55.093Z,87.60
2019-02-19T10:18:22.600Z,87.60
2019-02-19T10:20:51.753Z,87.30
2019-02-19T10:23:19.809Z,87.90
2019-02-19T10:25:47.292Z,88.10
2019-02-19T10:28:15.197Z,88.00
2019-02-19T10:30:42.899Z,87.20
2019-02-19T10:33:10.493Z,87.30
2019-02-19T10:35:38.120Z,87.40
2019-02-19T10:38:05.971Z,87.30
2019-02-19T10:40:33.447Z,86.30
2019-02-19T10:43:04.552Z,85.80
2019-02-19T10:45:35.197Z,85.80
2019-02-19T10:48:03.113Z,86.00
2019-02-19T10:50:30.846Z,85.30
2019-02-19T10:52:58.517Z,85.00
2019-02-19T10:55:26.177Z,83.30
2019-02-19T10:57:54.773Z,83.90
2019-02-19T11:00:23.428Z,82.80
2019-02-19T11:02:51.394Z,82.20
2019-02-19T11:05:19.057Z,81.10
2019-02-19T11:07:46.754Z,80.50
2019-02-19T11:10:14.413Z,80.20
2019-02-19T11:12:42.148Z,79.10
2019-02-19T11:15:09.952Z,78.50
2019-02-19T11:17:47.764Z,78.90
2019-02-19T11:20:15.640Z,77.10
2019-02-19T11:22:43.276Z,77.40
2019-02-19T11:25:11.063Z,76.70
2019-02-19T11:27:38.564Z,77.20
2019-02-19T11:30:07.597Z,77.50
2019-02-19T11:32:35.176Z,77.00
2019-02-19T11:35:02.909Z,77.00
2019-02-19T11:37:30.439Z,76.10
2019-02-19T11:39:58.381Z,76.10
2019-02-19T11:42:26.605Z,75.90
2019-02-19T11:44:54.246Z,75.20
2019-02-19T11:47:26.544Z,76.70
2019-02-19T11:49:54.671Z,76.70
2019-02-19T11:52:22.417Z,75.90
2019-02-19T11:54:49.938Z,75.30
2019-02-19T11:57:17.499Z,74.80
2019-02-19T11:59:45.039Z,76.10
2019-02-19T12:02:14.849Z,76.10
2019-02-19T12:04:42.432Z,76.50
2019-02-19T12:07:09.992Z,76.10
2019-02-19T12:09:37.636Z,76.50
2019-02-19T12:12:08.685Z,76.30
2019-02-19T12:14:48.277Z,76.10
2019-02-19T12:18:00.514Z,76.70
2019-02-19T12:20:28.055Z,76.70
2019-02-19T12:22:55.579Z,76.30
2019-02-19T12:25:23.157Z,77.40
2019-02-19T12:27:50.690Z,76.70
2019-02-19T12:34:56.806Z,78.60
2019-02-19T12:37:40.524Z,77.40
2019-02-19T12:40:08.788Z,78.00
2019-02-19T12:42:54.444Z,79.10
2019-02-19T12:45:30.897Z,79.00
2019-02-19T12:49:14.290Z,79.50
2019-02-19T12:51:43.494Z,79.70
2019-02-19T12:54:12.049Z,80.30
2019-02-19T12:56:39.989Z,81.00
2019-02-19T12:59:07.598Z,81.10
2019-02-19T13:01:35.175Z,81.20
2019-02-19T13:04:02.714Z,81.40
2019-02-19T13:06:30.869Z,81.70
2019-02-19T13:08:58.658Z,82.10
2019-02-19T13:11:26.220Z,82.10
2019-02-19T13:13:54.173Z,81.50
2019-02-19T13:16:21.725Z,81.60
2019-02-19T13:18:49.420Z,81.50
2019-02-19T13:21:19.282Z,81.60
2019-02-19T13:23:46.777Z,81.80
2019-02-19T13:26:14.269Z,82.40
2019-02-19T13:28:42.741Z,82.40
2019-02-19T13:31:10.282Z,82.50
2019-02-19T13:33:38.412Z,82.20
2019-02-19T13:36:07.460Z,83.30
2019-02-19T13:38:35.025Z,83.90
2019-02-19T13:41:02.793Z,83.40
2019-02-19T13:43:30.401Z,84.10
2019-02-19T13:45:58.205Z,84.60
2019-02-19T13:48:25.786Z,85.30
2019-02-19T13:50:53.773Z,85.70
2019-02-19T13:53:26.163Z,85.90
2019-02-19T13:55:55.603Z,86.20
2019-02-19T13:58:23.161Z,86.40
2019-02-19T14:00:50.844Z,87.00
2019-02-19T14:03:18.346Z,87.30
2019-02-19T14:05:45.926Z,87.50
2019-02-19T14:08:14.820Z,87.70
2019-02-19T14:10:42.498Z,87.60
2019-02-19T14:13:10.024Z,87.90
2019-02-19T14:15:56.980Z,87.70
2019-02-19T14:18:44.598Z,87.60
2019-02-19T14:21:30.013Z,87.70
2019-02-19T14:24:18.431Z,87.70
2019-02-19T14:27:03.800Z,87.80
2019-02-19T14:29:49.448Z,88.10
2019-02-19T14:32:39.649Z,88.60
2019-02-19T14:35:24.913Z,88.10
2019-02-19T14:38:12.622Z,87.90
2019-02-19T14:41:05.227Z,88.10
2019-02-19T14:43:52.208Z,87.90
2019-02-19T14:46:51.073Z,87.90
2019-02-19T14:49:47.204Z,87.60
2019-02-19T14:52:33.037Z,87.70
2019-02-19T14:55:24.757Z,87.60
2019-02-19T14:58:04.576Z,87.80
2019-02-19T15:00:49.965Z,87.90
2019-02-19T15:03:40.134Z,88.20
2019-02-19T15:06:25.900Z,88.40
2019-02-19T15:09:11.003Z,88.30
2019-02-19T15:11:52.961Z,87.80
2019-02-19T15:14:31.114Z,87.50
2019-02-19T15:17:16.709Z,87.40
2019-02-19T15:20:06.745Z,87.50
2019-02-19T15:22:52.110Z,87.30
2019-02-19T15:25:42.170Z,87.30
2019-02-19T15:28:29.648Z,87.70
2019-02-19T15:31:22.685Z,87.90
2019-02-19T15:34:23.225Z,88.10
2019-02-19T15:37:25.368Z,88.20
2019-02-19T15:40:15.256Z,87.90
2019-02-19T15:43:00.907Z,87.80
2019-02-19T15:45:47.879Z,87.70
2019-02-19T15:48:38.389Z,88.00
2019-02-19T15:51:43.616Z,88.00
2019-02-19T15:54:42.779Z,87.90
2019-02-19T15:57:22.560Z,88.00
2019-02-19T16:00:04.385Z,88.20
2019-02-19T16:02:49.297Z,88.10
2019-02-19T16:05:35.032Z,88.50
2019-02-19T16:08:37.249Z,88.40
2019-02-19T16:11:23.020Z,88.30
2019-02-19T16:14:16.484Z,88.50
2019-02-19T16:16:51.471Z,88.50
2019-02-19T16:19:56.806Z,88.70
2019-02-19T16:22:58.377Z,89.00
2019-02-19T16:26:13.798Z,89.10
2019-02-19T16:29:15.041Z,89.10
2019-02-19T16:32:25.685Z,89.10
2019-02-19T16:35:18.371Z,89.40
2019-02-19T16:38:24.373Z,89.60
2019-02-19T16:41:08.892Z,89.70
2019-02-19T16:47:43.808Z,89.40
2019-02-19T16:54:38.306Z,89.40
2019-02-19T18:38:12.960Z,89.70
2019-02-19T19:09:52.770Z,90.30
2019-02-19T19:54:10.665Z,90.50
2019-02-19T20:54:38.877Z,92.00
2019-02-19T21:56:51.740Z,92.40
2019-02-19T21:59:56.644Z,92.40
